Time;durP1;ratioP1;P1;durP2;ratioP2;P2;SDS_P1;SDS_P2;PMS_P1;PMS_P2;Temp;Humidity;BMP_temperature;BMP_pressure;BME280_temperature;BME280_humidity;BME280_pressure;Samples;Min_cycle;Max_cycle;Signal;HPM_P1;HPM_P2
2021/04/29 00:00:15;;;;;;;20.43;13.30;;;3.90;81.20;;;;;;5034063;28;20204;-80
2021/04/29 00:03:03;;;;;;;20.77;13.47;;;4.00;81.20;;;;;;5033202;28;20213;-82
2021/04/29 00:05:30;;;;;;;23.30;13.27;;;4.20;80.50;;;;;;5035008;28;20735;-82
2021/04/29 00:07:59;;;;;;;22.27;13.47;;;4.30;80.50;;;;;;5028584;28;20188;-82
2021/04/29 00:10:30;;;;;;;21.20;13.83;;;4.20;80.60;;;;;;5030074;28;20274;-84
2021/04/29 00:12:58;;;;;;;18.53;13.00;;;4.10;80.90;;;;;;5033554;28;20944;-82
2021/04/29 00:15:27;;;;;;;20.17;13.90;;;4.00;80.80;;;;;;5028663;28;20228;-83
2021/04/29 00:17:54;;;;;;;19.03;13.57;;;3.90;81.30;;;;;;5026832;28;20200;-83
2021/04/29 00:20:23;;;;;;;19.93;13.70;;;3.90;81.70;;;;;;5029570;28;20209;-81
2021/04/29 00:22:52;;;;;;;19.20;13.83;;;3.80;81.70;;;;;;5026253;28;20192;-82
2021/04/29 00:25:19;;;;;;;20.90;13.57;;;3.70;82.10;;;;;;5030678;28;20199;-80
2021/04/29 00:27:47;;;;;;;20.60;14.17;;;3.70;82.10;;;;;;5025753;28;20603;-81
2021/04/29 00:30:15;;;;;;;20.20;14.73;;;3.70;82.50;;;;;;5034311;28;20187;-81
2021/04/29 00:32:43;;;;;;;21.27;13.57;;;3.70;82.70;;;;;;5028433;28;20215;-82
2021/04/29 00:35:12;;;;;;;21.57;15.37;;;3.60;82.40;;;;;;5025330;28;20627;-84
2021/04/29 00:37:40;;;;;;;21.27;13.93;;;3.50;82.50;;;;;;5020562;28;20210;-82
2021/04/29 00:40:10;;;;;;;23.37;14.20;;;3.50;82.80;;;;;;5022590;28;20279;-81
2021/04/29 00:42:38;;;;;;;23.13;13.97;;;3.40;82.90;;;;;;5017754;28;20528;-83
2021/04/29 00:45:08;;;;;;;19.83;13.77;;;3.40;83.10;;;;;;5023096;28;20199;-82
2021/04/29 00:47:36;;;;;;;20.33;13.67;;;3.40;83.00;;;;;;5024977;28;20199;-83
2021/04/29 00:50:07;;;;;;;18.80;13.17;;;3.50;83.00;;;;;;5023621;28;20655;-83
2021/04/29 00:52:35;;;;;;;21.80;15.03;;;3.50;82.90;;;;;;5018127;28;20198;-82
2021/04/29 00:55:03;;;;;;;18.73;13.87;;;3.40;82.80;;;;;;5025122;28;20215;-83
2021/04/29 00:57:31;;;;;;;20.63;14.23;;;3.50;83.30;;;;;;5022601;28;20214;-81
2021/04/29 00:59:59;;;;;;;19.77;13.37;;;3.70;82.70;;;;;;5023670;28;20195;-84
2021/04/29 01:02:28;;;;;;;19.17;14.33;;;3.80;83.00;;;;;;5030522;28;20199;-82
2021/04/29 01:04:59;;;;;;;19.33;14.23;;;3.80;83.00;;;;;;5026734;28;20292;-81
2021/04/29 01:07:32;;;;;;;21.70;14.30;;;3.60;82.80;;;;;;5028864;28;20207;-82
2021/04/29 01:10:06;;;;;;;21.30;15.17;;;3.70;83.10;;;;;;5029730;28;20279;-82
2021/04/29 01:12:41;;;;;;;21.23;13.97;;;3.70;83.30;;;;;;5034983;28;20202;-83
2021/04/29 01:15:10;;;;;;;25.07;15.90;;;3.60;83.30;;;;;;5033860;28;20203;-85
2021/04/29 01:17:44;;;;;;;23.23;15.27;;;3.60;83.00;;;;;;5048207;28;20207;-82
2021/04/29 01:20:18;;;;;;;22.47;16.17;;;3.50;83.30;;;;;;5036886;28;20428;-82
2021/04/29 01:22:55;;;;;;;22.93;15.20;;;3.50;83.30;;;;;;5026800;28;20198;-82
2021/04/29 01:25:28;;;;;;;23.97;16.70;;;3.50;83.50;;;;;;5037709;28;20450;-83
2021/04/29 01:27:57;;;;;;;22.73;16.27;;;3.50;83.30;;;;;;5029477;28;20186;-82
2021/04/29 01:30:25;;;;;;;25.30;16.33;;;3.50;83.10;;;;;;5036170;28;20203;-82
2021/04/29 01:32:54;;;;;;;25.00;16.97;;;3.50;83.20;;;;;;5026061;28;20328;-83
2021/04/29 01:35:22;;;;;;;24.80;16.40;;;3.40;83.40;;;;;;5025514;28;21006;-82
2021/04/29 01:37:51;;;;;;;26.60;16.47;;;3.20;83.20;;;;;;5022106;28;20198;-82
2021/04/29 01:40:21;;;;;;;23.90;16.13;;;3.20;83.50;;;;;;5031675;28;20202;-81
2021/04/29 01:42:49;;;;;;;24.03;16.40;;;3.20;84.00;;;;;;5032084;28;20203;-81
2021/04/29 01:45:18;;;;;;;22.83;16.70;;;3.20;84.00;;;;;;5029937;28;20245;-82
2021/04/29 01:47:45;;;;;;;23.83;15.53;;;3.20;83.80;;;;;;5025201;28;20195;-82
2021/04/29 01:50:14;;;;;;;23.20;16.70;;;3.30;84.40;;;;;;5024135;28;20522;-81
2021/04/29 01:52:43;;;;;;;25.73;16.90;;;3.20;84.10;;;;;;5027094;28;20225;-81
2021/04/29 01:55:12;;;;;;;24.00;16.70;;;3.30;83.90;;;;;;5029406;28;20222;-81
2021/04/29 01:57:40;;;;;;;22.77;17.67;;;3.30;83.70;;;;;;5026785;28;20199;-82
2021/04/29 02:00:09;;;;;;;25.30;17.07;;;3.20;84.10;;;;;;5024326;28;20326;-82
2021/04/29 02:02:38;;;;;;;24.47;16.33;;;3.10;84.50;;;;;;5027352;28;20191;-83
2021/04/29 02:05:06;;;;;;;24.20;16.27;;;3.20;84.70;;;;;;5027680;28;20199;-83
2021/04/29 02:07:34;;;;;;;20.80;16.03;;;3.10;84.80;;;;;;5018574;28;20213;-82
2021/04/29 02:10:01;;;;;;;24.00;16.20;;;3.10;84.70;;;;;;5019640;28;20570;-84
2021/04/29 02:12:33;;;;;;;24.27;17.57;;;2.90;85.00;;;;;;5024242;28;20536;-81
2021/04/29 02:15:05;;;;;;;23.63;15.87;;;2.90;85.00;;;;;;5020082;28;20223;-82
2021/04/29 02:17:38;;;;;;;22.00;15.93;;;2.80;85.20;;;;;;5020148;28;20194;-82
2021/04/29 02:20:08;;;;;;;25.47;16.23;;;2.80;85.40;;;;;;5032975;28;20218;-83
2021/04/29 02:22:40;;;;;;;24.47;16.00;;;2.70;85.50;;;;;;5037661;28;20188;-83
2021/04/29 02:25:08;;;;;;;22.10;16.00;;;2.70;85.60;;;;;;5037396;28;20579;-83
2021/04/29 02:27:38;;;;;;;24.10;15.77;;;2.70;85.70;;;;;;5014042;28;20253;-80
2021/04/29 02:30:09;;;;;;;22.97;15.83;;;2.70;85.30;;;;;;5015001;28;20230;-83
2021/04/29 02:32:37;;;;;;;23.13;15.60;;;2.70;85.50;;;;;;5032877;28;20214;-82
2021/04/29 02:35:08;;;;;;;27.13;16.40;;;2.70;85.70;;;;;;5025459;28;20265;-82
2021/04/29 02:37:37;;;;;;;23.13;16.13;;;2.60;85.60;;;;;;5013666;28;20203;-81
2021/04/29 02:40:08;;;;;;;22.63;15.63;;;2.60;85.80;;;;;;5017450;28;20199;-81
2021/04/29 02:42:36;;;;;;;25.27;16.43;;;2.60;86.20;;;;;;5015060;28;20191;-83
2021/04/29 02:45:05;;;;;;;26.23;16.30;;;2.60;86.70;;;;;;5016344;28;20187;-83
2021/04/29 02:47:33;;;;;;;23.90;16.73;;;2.60;86.50;;;;;;5016288;28;20612;-83
2021/04/29 02:50:00;;;;;;;21.33;15.53;;;2.60;86.90;;;;;;5013950;28;20203;-83
2021/04/29 02:52:29;;;;;;;23.37;16.57;;;2.60;86.70;;;;;;5029931;28;20474;-81
2021/04/29 02:54:57;;;;;;;27.97;16.67;;;2.60;87.00;;;;;;5028273;28;20210;-83
2021/04/29 02:57:25;;;;;;;24.57;17.17;;;2.60;87.20;;;;;;5031037;28;20215;-83
2021/04/29 02:59:52;;;;;;;23.23;16.93;;;2.70;87.20;;;;;;5035764;28;20204;-81
2021/04/29 03:02:22;;;;;;;26.17;18.33;;;2.70;87.20;;;;;;5038858;28;20195;-84
2021/04/29 03:04:50;;;;;;;29.40;18.40;;;2.80;87.20;;;;;;5038208;28;20198;-83
2021/04/29 03:07:18;;;;;;;27.40;17.30;;;2.70;87.50;;;;;;5036322;28;20195;-82
2021/04/29 03:09:46;;;;;;;29.07;18.53;;;2.80;87.60;;;;;;5039511;28;20211;-82
2021/04/29 03:12:14;;;;;;;33.03;20.50;;;2.70;87.50;;;;;;5035976;28;20289;-82
2021/04/29 03:14:41;;;;;;;29.97;20.43;;;2.80;87.80;;;;;;5041774;28;20219;-82
2021/04/29 03:17:09;;;;;;;28.00;18.50;;;2.80;87.90;;;;;;5038996;28;20218;-84
2021/04/29 03:19:36;;;;;;;23.53;17.13;;;2.70;87.80;;;;;;5037141;28;20207;-83
2021/04/29 03:22:04;;;;;;;23.67;17.53;;;2.70;87.90;;;;;;5039352;28;20191;-82
2021/04/29 03:24:33;;;;;;;23.80;17.00;;;2.70;88.20;;;;;;5037895;28;20186;-82
2021/04/29 03:27:21;;;;;;;24.03;16.10;;;2.60;88.20;;;;;;5016605;28;20507;-82
2021/04/29 03:29:49;;;;;;;22.53;16.67;;;2.70;88.30;;;;;;5015094;28;20271;-81
2021/04/29 03:32:17;;;;;;;20.97;16.03;;;2.70;88.80;;;;;;5016802;28;20258;-82
2021/04/29 03:34:46;;;;;;;22.37;17.83;;;2.80;88.90;;;;;;5016995;28;20308;-82
2021/04/29 03:37:14;;;;;;;25.03;17.00;;;2.90;88.80;;;;;;5012268;28;20618;-82
2021/04/29 03:39:41;;;;;;;21.50;16.60;;;3.20;88.50;;;;;;5016562;28;20536;-82
2021/04/29 03:42:10;;;;;;;24.07;15.37;;;3.10;88.20;;;;;;5011279;28;20490;-83
2021/04/29 03:44:40;;;;;;;27.43;16.30;;;3.20;88.00;;;;;;5026776;28;20194;-82
2021/04/29 03:47:08;;;;;;;26.30;16.70;;;3.20;87.90;;;;;;5033220;28;20191;-83
2021/04/29 03:49:36;;;;;;;23.43;15.83;;;3.30;87.90;;;;;;5031751;28;20478;-83
2021/04/29 03:52:04;;;;;;;21.07;16.10;;;3.40;87.80;;;;;;5038635;28;20203;-83
2021/04/29 03:54:32;;;;;;;20.90;15.03;;;3.50;87.70;;;;;;5034312;28;20188;-81
2021/04/29 03:57:00;;;;;;;20.83;15.87;;;3.60;87.40;;;;;;5041023;28;20210;-83
2021/04/29 03:59:28;;;;;;;23.70;16.23;;;3.60;87.30;;;;;;5037651;28;20183;-81
2021/04/29 04:01:56;;;;;;;23.03;17.30;;;3.70;87.00;;;;;;5042217;28;20409;-81
2021/04/29 04:04:25;;;;;;;23.93;17.10;;;3.80;86.50;;;;;;5035717;28;20215;-82
2021/04/29 04:06:54;;;;;;;23.13;17.30;;;3.90;86.20;;;;;;5038855;28;20811;-82
2021/04/29 04:09:21;;;;;;;22.53;15.97;;;4.00;86.10;;;;;;5034541;28;20271;-83
2021/04/29 04:11:49;;;;;;;26.30;16.63;;;4.20;86.10;;;;;;5038236;28;20199;-82
2021/04/29 04:14:17;;;;;;;21.90;16.23;;;4.20;85.80;;;;;;5016721;28;20231;-81
2021/04/29 04:16:45;;;;;;;25.90;15.93;;;4.40;85.70;;;;;;5022816;28;20293;-80
2021/04/29 04:19:14;;;;;;;23.50;16.87;;;4.50;85.70;;;;;;5025455;28;20219;-83
2021/04/29 04:21:42;;;;;;;25.57;16.63;;;4.60;85.60;;;;;;5027631;28;20295;-82
2021/04/29 04:24:13;;;;;;;24.47;17.40;;;4.60;85.50;;;;;;5023995;28;20196;-82
2021/04/29 04:26:47;;;;;;;28.97;16.77;;;4.90;85.70;;;;;;5042150;28;20766;-82
2021/04/29 04:29:15;;;;;;;22.80;16.27;;;4.90;85.50;;;;;;5021629;28;20198;-83
2021/04/29 04:31:44;;;;;;;21.90;16.57;;;5.00;85.70;;;;;;5029629;28;20208;-82
2021/04/29 04:34:11;;;;;;;23.13;17.10;;;5.10;85.80;;;;;;5030871;28;20411;-80
2021/04/29 04:36:40;;;;;;;23.87;17.40;;;5.20;85.80;;;;;;5034593;28;20607;-81
2021/04/29 04:39:08;;;;;;;46.13;36.67;;;5.40;85.70;;;;;;5024136;28;20211;-82
2021/04/29 04:41:36;;;;;;;102.27;84.43;;;5.50;85.00;;;;;;5024175;28;20262;-82
2021/04/29 04:44:04;;;;;;;82.60;66.80;;;5.70;84.90;;;;;;5027509;28;20220;-82
2021/04/29 04:46:32;;;;;;;72.77;56.23;;;5.80;84.70;;;;;;5023664;28;20492;-82
2021/04/29 04:49:00;;;;;;;69.73;55.33;;;5.90;84.70;;;;;;5013679;28;20672;-82
2021/04/29 04:51:28;;;;;;;50.73;39.27;;;6.00;84.60;;;;;;5016239;28;20206;-82
2021/04/29 04:53:56;;;;;;;39.50;25.77;;;6.10;84.50;;;;;;5021683;28;20276;-81
2021/04/29 04:56:24;;;;;;;29.97;21.60;;;6.20;84.40;;;;;;5019609;28;20238;-82
2021/04/29 04:58:52;;;;;;;25.87;18.90;;;6.30;84.40;;;;;;5015784;28;20262;-81
2021/04/29 05:01:19;;;;;;;25.90;17.63;;;6.40;84.20;;;;;;5021097;28;20608;-81
2021/04/29 05:03:49;;;;;;;25.17;16.97;;;6.50;84.10;;;;;;5020281;28;20510;-83
2021/04/29 05:06:17;;;;;;;27.70;17.93;;;6.60;83.90;;;;;;5028859;28;20199;-81
2021/04/29 05:08:49;;;;;;;24.37;16.70;;;6.70;83.90;;;;;;5025897;28;20828;-82
2021/04/29 05:11:18;;;;;;;23.47;17.50;;;6.80;83.70;;;;;;5020904;28;20659;-82
2021/04/29 05:13:46;;;;;;;28.83;17.90;;;6.90;83.80;;;;;;5021687;28;20209;-81
2021/04/29 05:16:15;;;;;;;25.83;17.33;;;7.00;83.80;;;;;;5041875;28;20246;-81
2021/04/29 05:18:43;;;;;;;24.63;17.37;;;7.20;83.70;;;;;;5028052;28;20196;-84
2021/04/29 05:21:14;;;;;;;26.90;18.63;;;7.30;83.50;;;;;;5023615;28;20212;-82
2021/04/29 05:23:47;;;;;;;28.37;18.20;;;7.40;83.40;;;;;;5020779;28;20984;-83
2021/04/29 05:26:19;;;;;;;21.17;17.53;;;7.70;83.50;;;;;;5028378;28;20207;-83
2021/04/29 05:29:07;;;;;;;25.93;18.13;;;7.70;83.40;;;;;;5015100;28;20231;-83
2021/04/29 05:31:52;;;;;;;23.27;17.37;;;7.70;83.40;;;;;;5025727;28;20209;-83
2021/04/29 05:34:20;;;;;;;19.50;16.50;;;7.90;83.30;;;;;;5028212;28;20270;-82
2021/04/29 05:36:48;;;;;;;23.73;17.60;;;8.10;83.20;;;;;;5025724;28;21394;-83
2021/04/29 05:39:16;;;;;;;27.07;18.23;;;8.20;83.00;;;;;;5017098;28;20403;-82
2021/04/29 05:41:46;;;;;;;27.27;17.63;;;8.30;83.00;;;;;;5027340;28;20201;-82
2021/04/29 05:44:14;;;;;;;29.53;17.37;;;8.50;83.00;;;;;;5019725;28;20926;-84
2021/04/29 05:46:43;;;;;;;25.17;17.73;;;8.70;82.80;;;;;;5024156;28;20263;-81
2021/04/29 05:49:10;;;;;;;25.73;17.53;;;8.80;82.80;;;;;;5025596;28;20218;-82
2021/04/29 05:51:39;;;;;;;25.30;18.30;;;8.90;82.80;;;;;;5030474;28;20316;-83
2021/04/29 05:54:07;;;;;;;24.07;17.83;;;9.10;82.90;;;;;;5036780;28;20202;-82
2021/04/29 05:56:35;;;;;;;28.73;18.10;;;9.20;82.80;;;;;;5019456;28;20270;-82
2021/04/29 05:59:03;;;;;;;25.63;17.70;;;9.40;82.40;;;;;;5012461;28;20218;-81
2021/04/29 06:01:32;;;;;;;22.93;16.27;;;9.60;82.30;;;;;;5016216;28;20559;-82
2021/04/29 06:04:02;;;;;;;23.07;16.50;;;9.70;82.20;;;;;;5021521;28;20720;-78
2021/04/29 06:06:29;;;;;;;19.90;17.07;;;9.70;82.30;;;;;;5014825;28;20207;-81
2021/04/29 06:08:58;;;;;;;19.33;15.93;;;9.80;82.40;;;;;;5010471;28;20210;-83
2021/04/29 06:11:25;;;;;;;21.37;16.40;;;9.80;82.20;;;;;;5015676;28;20241;-84
2021/04/29 06:13:53;;;;;;;22.63;16.20;;;9.90;82.10;;;;;;5010913;28;20331;-82
2021/04/29 06:16:21;;;;;;;22.77;16.57;;;10.00;82.10;;;;;;5014449;28;20406;-81
2021/04/29 06:18:50;;;;;;;20.73;17.50;;;10.10;82.10;;;;;;5001247;28;20369;-81
2021/04/29 06:21:18;;;;;;;20.93;16.00;;;10.10;82.20;;;;;;5004844;28;20222;-82
2021/04/29 06:23:45;;;;;;;20.50;16.63;;;10.20;82.10;;;;;;5000319;28;20586;-80
2021/04/29 06:26:13;;;;;;;18.87;16.27;;;10.30;82.00;;;;;;5001591;28;20683;-81
2021/04/29 06:28:40;;;;;;;20.50;16.20;;;10.40;81.70;;;;;;5005973;28;20673;-82
2021/04/29 06:31:08;;;;;;;21.60;17.20;;;10.40;81.90;;;;;;4999071;28;20204;-82
2021/04/29 06:33:36;;;;;;;21.27;16.27;;;10.50;81.90;;;;;;5005993;28;20215;-82
2021/04/29 06:36:06;;;;;;;21.53;15.37;;;10.60;81.60;;;;;;5004063;28;20246;-82
2021/04/29 06:38:35;;;;;;;21.63;15.80;;;10.60;81.50;;;;;;5002623;28;20219;-82
2021/04/29 06:41:03;;;;;;;21.03;17.13;;;10.70;81.80;;;;;;5005828;28;20981;-80
2021/04/29 06:43:31;;;;;;;21.10;16.33;;;10.80;81.50;;;;;;5005724;28;20213;-80
2021/04/29 06:45:59;;;;;;;19.83;16.47;;;10.90;81.40;;;;;;4998825;28;21684;-82
2021/04/29 06:48:27;;;;;;;19.40;16.23;;;11.10;81.40;;;;;;4999878;28;20222;-81
2021/04/29 06:50:55;;;;;;;18.10;16.17;;;11.10;81.40;;;;;;5022085;28;20203;-81
2021/04/29 06:53:23;;;;;;;18.40;15.97;;;11.30;81.30;;;;;;5019274;28;20268;-81
2021/04/29 06:55:51;;;;;;;18.70;15.27;;;11.50;81.10;;;;;;4998958;28;20241;-82
2021/04/29 06:58:19;;;;;;;19.50;16.17;;;11.70;81.00;;;;;;4996252;28;20266;-81
2021/04/29 07:00:48;;;;;;;17.10;15.17;;;11.80;80.80;;;;;;4995151;28;20199;-82
2021/04/29 07:03:15;;;;;;;18.20;15.10;;;11.90;80.70;;;;;;5002749;28;20206;-83
2021/04/29 07:05:43;;;;;;;18.10;15.20;;;12.00;80.50;;;;;;5003063;28;20674;-82
2021/04/29 07:08:12;;;;;;;19.00;16.17;;;12.10;80.20;;;;;;5004059;28;20634;-83
2021/04/29 07:10:41;;;;;;;18.43;15.60;;;12.10;80.00;;;;;;5010122;28;20217;-83
2021/04/29 07:13:11;;;;;;;18.37;15.47;;;12.20;80.30;;;;;;5006544;28;20202;-82
2021/04/29 07:15:38;;;;;;;21.67;15.97;;;12.40;80.30;;;;;;4997500;28;20207;-84
2021/04/29 07:18:06;;;;;;;18.63;15.47;;;12.50;79.90;;;;;;5014384;28;20214;-79
2021/04/29 07:20:34;;;;;;;19.50;16.03;;;12.60;79.70;;;;;;5030027;28;20214;-83
2021/04/29 07:23:02;;;;;;;20.47;16.73;;;12.70;79.60;;;;;;5027999;28;20269;-82
2021/04/29 07:25:37;;;;;;;19.93;15.73;;;12.70;79.40;;;;;;5030609;28;20359;-85
2021/04/29 07:28:06;;;;;;;17.43;15.63;;;12.70;79.40;;;;;;5026501;28;21067;-84
2021/04/29 07:30:35;;;;;;;20.17;16.10;;;12.60;79.20;;;;;;5032489;28;20534;-82
2021/04/29 07:33:03;;;;;;;22.00;16.03;;;12.70;79.20;;;;;;5013859;28;20215;-83
2021/04/29 07:35:32;;;;;;;20.87;16.07;;;12.80;79.30;;;;;;5021735;28;20225;-83
2021/04/29 07:37:59;;;;;;;20.17;15.50;;;13.00;79.00;;;;;;5031230;28;20226;-83
2021/04/29 07:40:27;;;;;;;20.07;15.73;;;13.10;78.80;;;;;;5021701;28;20203;-80
2021/04/29 07:42:55;;;;;;;18.60;15.97;;;13.20;78.70;;;;;;5002374;28;20317;-82
2021/04/29 07:45:24;;;;;;;22.07;15.73;;;13.40;79.00;;;;;;4990021;28;20908;-83
2021/04/29 07:47:51;;;;;;;18.47;15.57;;;13.60;79.00;;;;;;4995490;28;20722;-78
2021/04/29 07:50:19;;;;;;;18.43;15.63;;;13.80;78.40;;;;;;4985158;28;20570;-79
2021/04/29 07:52:47;;;;;;;20.83;16.07;;;13.90;77.70;;;;;;4991486;28;20207;-83
2021/04/29 07:55:16;;;;;;;20.70;16.40;;;13.90;77.60;;;;;;4994537;28;20199;-81
2021/04/29 07:57:44;;;;;;;18.43;16.30;;;13.70;78.20;;;;;;4997215;28;20230;-80
2021/04/29 08:00:14;;;;;;;18.70;15.27;;;13.90;77.60;;;;;;5020709;28;20636;-85
2021/04/29 08:02:43;;;;;;;20.77;16.30;;;13.90;77.60;;;;;;5006803;28;20230;-83
2021/04/29 08:05:12;;;;;;;21.93;19.20;;;14.10;77.60;;;;;;4997411;28;20635;-83
2021/04/29 08:07:40;;;;;;;31.40;26.67;;;14.20;77.40;;;;;;5002154;28;20213;-82
2021/04/29 08:10:10;;;;;;;19.37;17.00;;;14.20;77.50;;;;;;5002588;28;20202;-84
2021/04/29 08:12:38;;;;;;;20.60;15.90;;;14.40;77.20;;;;;;5003795;28;21186;-82
2021/04/29 08:15:07;;;;;;;23.30;15.87;;;14.30;77.30;;;;;;5007825;28;20202;-83
2021/04/29 08:17:35;;;;;;;16.70;14.93;;;14.30;76.90;;;;;;4998820;28;20647;-83
2021/04/29 08:20:06;;;;;;;18.53;15.53;;;14.40;76.80;;;;;;5008195;28;20207;-83
2021/04/29 08:22:34;;;;;;;18.30;14.60;;;14.40;76.40;;;;;;5004216;28;20229;-82
2021/04/29 08:25:03;;;;;;;19.07;16.27;;;14.50;76.40;;;;;;5007771;28;20206;-83
2021/04/29 08:27:31;;;;;;;19.73;15.23;;;14.60;76.60;;;;;;4992925;28;20217;-83
2021/04/29 08:30:05;;;;;;;17.17;14.80;;;14.70;76.10;;;;;;5002373;28;20214;-83
2021/04/29 08:32:34;;;;;;;17.47;14.53;;;14.90;76.00;;;;;;5010439;28;20371;-84
2021/04/29 08:35:02;;;;;;;16.37;14.67;;;15.20;76.00;;;;;;5016001;28;20272;-83
2021/04/29 08:37:31;;;;;;;18.53;14.60;;;15.30;75.70;;;;;;5011926;28;20233;-83
2021/04/29 08:39:58;;;;;;;17.67;14.67;;;15.50;76.00;;;;;;5021137;28;20210;-82
2021/04/29 08:42:28;;;;;;;17.17;14.97;;;15.80;74.80;;;;;;5014920;28;20248;-84
2021/04/29 08:44:56;;;;;;;19.17;15.33;;;15.80;74.80;;;;;;5019462;28;20198;-82
2021/04/29 08:47:24;;;;;;;17.97;14.07;;;15.90;74.50;;;;;;5014372;28;20206;-85
2021/04/29 08:50:12;;;;;;;19.53;13.50;;;16.00;74.40;;;;;;5017924;28;20284;-83
2021/04/29 08:52:41;;;;;;;18.30;12.83;;;16.20;73.70;;;;;;5010418;28;20207;-84
2021/04/29 08:55:15;;;;;;;16.97;12.83;;;16.30;72.90;;;;;;5021516;28;20188;-83
2021/04/29 08:57:45;;;;;;;16.37;13.00;;;16.30;72.50;;;;;;5020784;28;20230;-82
2021/04/29 09:00:14;;;;;;;16.40;12.17;;;16.30;72.80;;;;;;5021835;28;20218;-82
2021/04/29 09:02:43;;;;;;;17.53;12.10;;;16.40;72.00;;;;;;5003633;28;20672;-82
2021/04/29 09:05:15;;;;;;;15.53;12.50;;;16.30;71.40;;;;;;5004426;28;20245;-82
2021/04/29 09:08:00;;;;;;;14.63;12.27;;;16.40;71.70;;;;;;5022912;28;20214;-83
2021/04/29 09:10:30;;;;;;;15.10;11.00;;;16.50;70.60;;;;;;5013706;28;20518;-84
2021/04/29 09:12:59;;;;;;;16.03;11.87;;;16.50;70.50;;;;;;5001204;28;21063;-83
2021/04/29 09:15:30;;;;;;;12.87;11.57;;;16.40;70.00;;;;;;5007023;28;20689;-83
2021/04/29 09:18:08;;;;;;;14.57;12.57;;;16.40;70.10;;;;;;4994626;28;20569;-82
2021/04/29 09:20:38;;;;;;;12.77;11.47;;;16.40;70.10;;;;;;4996960;28;20199;-83
2021/04/29 09:23:08;;;;;;;13.20;11.80;;;16.40;69.90;;;;;;5004623;28;20213;-83
2021/04/29 09:25:37;;;;;;;16.77;12.53;;;16.40;69.60;;;;;;5004460;28;20732;-82
2021/04/29 09:28:05;;;;;;;16.73;12.80;;;16.40;69.00;;;;;;4998399;28;20761;-84
2021/04/29 09:30:33;;;;;;;14.07;12.53;;;16.40;69.10;;;;;;4999387;28;20218;-84
2021/04/29 09:33:03;;;;;;;13.77;12.33;;;16.50;69.80;;;;;;4997823;28;20706;-82
2021/04/29 09:35:32;;;;;;;13.90;12.50;;;16.70;69.60;;;;;;4993590;28;21048;-82
2021/04/29 09:38:01;;;;;;;14.10;12.60;;;16.90;69.10;;;;;;5000679;28;20300;-82
2021/04/29 09:40:33;;;;;;;13.50;12.10;;;16.90;68.90;;;;;;5008833;28;20221;-82
2021/04/29 09:43:01;;;;;;;15.63;12.73;;;17.00;69.00;;;;;;5006522;28;20309;-81
2021/04/29 09:45:31;;;;;;;14.80;12.23;;;17.20;69.00;;;;;;5008859;28;20214;-83
2021/04/29 09:48:01;;;;;;;12.90;11.60;;;17.20;69.20;;;;;;5003288;28;20198;-82
2021/04/29 09:50:35;;;;;;;14.53;12.23;;;17.50;69.10;;;;;;5014133;28;20214;-82
2021/04/29 09:53:07;;;;;;;12.00;10.83;;;17.70;67.70;;;;;;5007590;28;20235;-82
2021/04/29 09:55:38;;;;;;;13.87;11.57;;;17.70;66.40;;;;;;5000858;28;20206;-83
2021/04/29 09:58:13;;;;;;;12.57;11.27;;;17.70;66.70;;;;;;5021016;28;20307;-82
2021/04/29 10:00:42;;;;;;;18.00;11.07;;;17.70;66.90;;;;;;5016762;28;20225;-80
2021/04/29 10:03:10;;;;;;;13.27;11.03;;;17.80;67.10;;;;;;5011882;28;20307;-81
2021/04/29 10:05:40;;;;;;;11.53;10.37;;;18.10;67.40;;;;;;5007325;28;20991;-82
2021/04/29 10:08:10;;;;;;;13.57;10.57;;;18.20;65.10;;;;;;5004314;28;21046;-81
2021/04/29 10:10:41;;;;;;;12.33;10.47;;;18.10;65.20;;;;;;5010556;28;20210;-83
2021/04/29 10:13:09;;;;;;;11.10;9.93;;;18.30;65.70;;;;;;5010665;28;20257;-84
2021/04/29 10:15:39;;;;;;;13.20;11.20;;;18.50;64.90;;;;;;5004825;28;20198;-81
2021/04/29 10:18:08;;;;;;;10.60;9.60;;;18.60;64.70;;;;;;4994612;28;20254;-82
2021/04/29 10:20:38;;;;;;;14.43;10.53;;;18.70;64.30;;;;;;5007415;28;20686;-82
2021/04/29 10:23:09;;;;;;;12.77;10.47;;;18.90;64.20;;;;;;5005677;28;20303;-83
2021/04/29 10:25:38;;;;;;;12.00;9.40;;;19.00;63.80;;;;;;5009749;28;20716;-80
2021/04/29 10:28:06;;;;;;;10.60;9.60;;;19.00;63.00;;;;;;4996604;28;20739;-82
2021/04/29 10:30:36;;;;;;;11.73;9.40;;;19.10;62.70;;;;;;5012194;28;20179;-84
2021/04/29 10:33:16;;;;;;;11.67;9.77;;;19.10;63.20;;;;;;5014175;28;20673;-81
2021/04/29 10:35:55;;;;;;;12.53;10.10;;;19.10;62.60;;;;;;4999263;28;20568;-82
2021/04/29 10:38:29;;;;;;;11.47;8.47;;;19.00;63.10;;;;;;4997852;28;20775;-81
2021/04/29 10:41:01;;;;;;;9.63;8.37;;;19.00;63.20;;;;;;5002079;28;20644;-82
2021/04/29 10:43:34;;;;;;;10.70;8.67;;;19.00;62.90;;;;;;5000783;28;21378;-85
2021/04/29 10:46:04;;;;;;;11.97;8.20;;;19.00;62.90;;;;;;5003183;28;20703;-81
2021/04/29 10:48:34;;;;;;;8.90;8.00;;;19.00;63.10;;;;;;5001238;28;20203;-80
2021/04/29 10:51:11;;;;;;;9.23;7.37;;;19.10;63.30;;;;;;5003102;28;20753;-82
2021/04/29 10:53:41;;;;;;;10.30;7.37;;;19.00;63.00;;;;;;5002929;28;20269;-83
2021/04/29 10:56:15;;;;;;;7.17;6.53;;;18.90;62.40;;;;;;5000815;28;20308;-81
2021/04/29 10:58:43;;;;;;;6.73;6.03;;;18.90;62.40;;;;;;5000433;28;20195;-82
2021/04/29 11:01:16;;;;;;;7.07;6.30;;;18.90;61.80;;;;;;5000727;28;20311;-83
2021/04/29 11:03:48;;;;;;;8.10;6.37;;;19.00;62.70;;;;;;4995521;28;20222;-82
2021/04/29 11:06:18;;;;;;;7.53;6.13;;;19.30;61.90;;;;;;4996567;28;20207;-84
2021/04/29 11:08:47;;;;;;;7.60;6.40;;;19.50;62.00;;;;;;5000426;28;20206;-82
2021/04/29 11:11:25;;;;;;;8.60;6.30;;;19.50;62.00;;;;;;5005431;28;20270;-82
2021/04/29 11:14:00;;;;;;;7.13;6.07;;;19.50;62.10;;;;;;5011129;28;20195;-83
2021/04/29 11:16:29;;;;;;;6.57;5.90;;;19.50;61.90;;;;;;5013719;28;20928;-81
2021/04/29 11:18:56;;;;;;;8.23;5.80;;;19.60;62.30;;;;;;5016349;28;20230;-83
2021/04/29 11:21:29;;;;;;;7.23;5.70;;;19.70;61.20;;;;;;5009747;28;20473;-82
2021/04/29 11:23:57;;;;;;;8.47;6.17;;;19.80;61.40;;;;;;5003103;28;20286;-85
2021/04/29 11:26:34;;;;;;;8.47;6.33;;;19.60;60.90;;;;;;4999275;28;20772;-84
2021/04/29 11:29:01;;;;;;;10.90;6.60;;;19.30;61.40;;;;;;5005165;28;20616;-83
2021/04/29 11:31:38;;;;;;;9.20;6.20;;;19.30;61.90;;;;;;5012423;28;20374;-84
2021/04/29 11:34:06;;;;;;;7.73;6.40;;;19.30;61.60;;;;;;5006761;28;20463;-82
2021/04/29 11:36:34;;;;;;;9.50;7.07;;;19.30;61.40;;;;;;5009322;28;20226;-81
2021/04/29 11:39:05;;;;;;;8.23;6.40;;;19.40;61.80;;;;;;4992020;28;20202;-83
2021/04/29 11:41:33;;;;;;;7.40;6.70;;;19.70;62.00;;;;;;5005549;28;20282;-83
2021/04/29 11:44:03;;;;;;;10.23;6.23;;;19.90;61.80;;;;;;5013769;28;20610;-83
2021/04/29 11:46:33;;;;;;;11.60;6.70;;;19.90;61.30;;;;;;5006292;28;20203;-83
2021/04/29 11:49:03;;;;;;;9.70;6.70;;;19.80;60.20;;;;;;5003472;28;20205;-81
2021/04/29 11:51:34;;;;;;;8.53;7.20;;;19.70;60.90;;;;;;4994220;28;20234;-83
2021/04/29 11:54:03;;;;;;;8.30;6.60;;;19.60;61.10;;;;;;4998595;28;20211;-80
2021/04/29 11:56:38;;;;;;;7.73;7.03;;;19.60;61.20;;;;;;4995567;28;20229;-83
2021/04/29 11:59:08;;;;;;;8.63;7.13;;;19.60;61.20;;;;;;4998727;28;20722;-83
2021/04/29 12:01:36;;;;;;;7.53;6.80;;;19.60;61.90;;;;;;4997831;28;20508;-81
2021/04/29 12:04:14;;;;;;;7.90;6.40;;;20.00;61.80;;;;;;4998369;28;20582;-82
2021/04/29 12:06:50;;;;;;;7.57;6.53;;;20.10;61.30;;;;;;4992190;28;20469;-83
2021/04/29 12:09:19;;;;;;;7.00;6.27;;;20.30;61.60;;;;;;5011395;28;20205;-81
2021/04/29 12:12:10;;;;;;;8.00;6.38;;;20.50;61.60;;;;;;4995875;28;20207;-82
2021/04/29 12:14:38;;;;;;;7.47;6.00;;;20.60;62.10;;;;;;4999163;28;20281;-83
2021/04/29 12:17:07;;;;;;;7.32;6.40;;;20.80;61.00;;;;;;5020467;28;20261;-83
2021/04/29 12:19:36;;;;;;;7.13;6.40;;;20.60;60.60;;;;;;5015167;28;20222;-84
2021/04/29 12:22:04;;;;;;;9.20;6.10;;;20.40;60.80;;;;;;5007271;28;20210;-82
2021/04/29 12:24:42;;;;;;;7.30;5.85;;;20.30;60.60;;;;;;5000896;28;20516;-80
2021/04/29 12:27:15;;;;;;;6.20;5.63;;;20.30;60.40;;;;;;4999688;28;20607;-82
2021/04/29 12:29:44;;;;;;;6.88;5.20;;;20.30;60.30;;;;;;5004736;28;20199;-83
2021/04/29 12:32:13;;;;;;;6.55;5.63;;;20.30;60.40;;;;;;5002877;28;20237;-83
2021/04/29 12:34:43;;;;;;;7.57;6.10;;;20.00;60.30;;;;;;5004433;28;20213;-81
2021/04/29 12:37:13;;;;;;;7.93;6.43;;;20.10;60.40;;;;;;4993384;28;21166;-80
2021/04/29 12:39:42;;;;;;;7.47;6.27;;;20.20;60.80;;;;;;4998181;28;20571;-80
2021/04/29 12:42:14;;;;;;;10.70;6.47;;;20.30;60.50;;;;;;4999568;28;20217;-83
2021/04/29 12:44:45;;;;;;;8.82;5.75;;;20.50;60.10;;;;;;5001960;28;20519;-82
2021/04/29 12:47:22;;;;;;;9.18;6.50;;;20.80;60.20;;;;;;4990373;28;20231;-83